sensor_id;sensor_type;location;lat;lon;timestamp;pressure;altitude;pressure_sealevel;temperature;humidity
58471;BME280;44258;51.288;12.068;2023-06-10T00:00:47;100399.72;;;19.91;44.81
58471;BME280;44258;51.288;12.068;2023-06-10T00:03:36;100393.69;;;19.87;45.66
58471;BME280;44258;51.288;12.068;2023-06-10T00:06:23;100401.88;;;19.78;45.75
58471;BME280;44258;51.288;12.068;2023-06-10T00:09:10;100401.97;;;19.66;45.30
58471;BME280;44258;51.288;12.068;2023-06-10T00:11:56;100401.69;;;19.50;45.90
58471;BME280;44258;51.288;12.068;2023-06-10T00:14:46;100388.22;;;19.48;46.16
58471;BME280;44258;51.288;12.068;2023-06-10T00:17:35;100401.84;;;19.48;45.69
58471;BME280;44258;51.288;12.068;2023-06-10T00:20:24;100403.72;;;19.38;46.19
58471;BME280;44258;51.288;12.068;2023-06-10T00:23:11;100398.38;;;19.27;46.58
58471;BME280;44258;51.288;12.068;2023-06-10T00:25:58;100402.94;;;19.17;46.43
58471;BME280;44258;51.288;12.068;2023-06-10T00:28:45;100405.00;;;19.44;46.56
58471;BME280;44258;51.288;12.068;2023-06-10T00:31:34;100403.22;;;19.13;46.45
58471;BME280;44258;51.288;12.068;2023-06-10T00:34:21;100402.69;;;18.79;47.16
58471;BME280;44258;51.288;12.068;2023-06-10T00:37:07;100406.81;;;18.73;47.62
58471;BME280;44258;51.288;12.068;2023-06-10T00:39:54;100395.81;;;18.54;48.11
58471;BME280;44258;51.288;12.068;2023-06-10T00:42:41;100403.53;;;18.07;49.27
58471;BME280;44258;51.288;12.068;2023-06-10T00:45:28;100396.78;;;18.01;49.78
58471;BME280;44258;51.288;12.068;2023-06-10T00:48:16;100407.47;;;17.61;50.80
58471;BME280;44258;51.288;12.068;2023-06-10T00:51:06;100411.09;;;17.61;50.98
58471;BME280;44258;51.288;12.068;2023-06-10T00:53:54;100402.41;;;17.88;50.51
58471;BME280;44258;51.288;12.068;2023-06-10T00:56:42;100404.41;;;18.07;50.07
58471;BME280;44258;51.288;12.068;2023-06-10T00:59:29;100396.75;;;18.12;49.93
58471;BME280;44258;51.288;12.068;2023-06-10T01:02:16;100406.56;;;18.25;49.87
58471;BME280;44258;51.288;12.068;2023-06-10T01:05:04;100403.75;;;18.36;50.22
58471;BME280;44258;51.288;12.068;2023-06-10T01:07:56;100406.81;;;18.43;49.14
58471;BME280;44258;51.288;12.068;2023-06-10T01:10:50;100416.09;;;18.40;49.39
58471;BME280;44258;51.288;12.068;2023-06-10T01:13:39;100417.34;;;18.57;49.58
58471;BME280;44258;51.288;12.068;2023-06-10T01:16:28;100406.16;;;18.60;49.43
58471;BME280;44258;51.288;12.068;2023-06-10T01:19:15;100407.78;;;18.63;49.26
58471;BME280;44258;51.288;12.068;2023-06-10T01:22:05;100409.31;;;18.56;49.50
58471;BME280;44258;51.288;12.068;2023-06-10T01:24:52;100404.59;;;18.58;49.66
58471;BME280;44258;51.288;12.068;2023-06-10T01:27:40;100415.09;;;18.41;50.14
58471;BME280;44258;51.288;12.068;2023-06-10T01:30:32;100415.78;;;18.33;50.27
58471;BME280;44258;51.288;12.068;2023-06-10T01:33:26;100423.28;;;18.41;50.50
58471;BME280;44258;51.288;12.068;2023-06-10T01:36:15;100412.97;;;18.45;50.38
58471;BME280;44258;51.288;12.068;2023-06-10T01:39:08;100411.19;;;18.34;50.55
58471;BME280;44258;51.288;12.068;2023-06-10T01:41:57;100422.97;;;18.34;50.35
58471;BME280;44258;51.288;12.068;2023-06-10T01:44:44;100425.19;;;18.29;50.86
58471;BME280;44258;51.288;12.068;2023-06-10T01:47:31;100426.59;;;18.45;51.10
58471;BME280;44258;51.288;12.068;2023-06-10T01:50:18;100420.06;;;18.36;50.34
58471;BME280;44258;51.288;12.068;2023-06-10T01:53:05;100426.94;;;18.30;51.17
58471;BME280;44258;51.288;12.068;2023-06-10T01:55:53;100424.13;;;18.42;50.79
58471;BME280;44258;51.288;12.068;2023-06-10T01:58:39;100427.50;;;18.34;50.76
58471;BME280;44258;51.288;12.068;2023-06-10T02:01:26;100435.84;;;18.32;51.06
58471;BME280;44258;51.288;12.068;2023-06-10T02:04:14;100425.53;;;18.15;50.96
58471;BME280;44258;51.288;12.068;2023-06-10T02:07:02;100425.00;;;18.00;51.90
58471;BME280;44258;51.288;12.068;2023-06-10T02:09:51;100432.81;;;17.93;51.97
58471;BME280;44258;51.288;12.068;2023-06-10T02:12:39;100430.03;;;18.05;52.44
58471;BME280;44258;51.288;12.068;2023-06-10T02:15:26;100435.69;;;17.81;52.35
58471;BME280;44258;51.288;12.068;2023-06-10T02:18:16;100431.59;;;17.86;52.04
58471;BME280;44258;51.288;12.068;2023-06-10T02:21:06;100440.53;;;17.77;52.74
58471;BME280;44258;51.288;12.068;2023-06-10T02:23:53;100445.84;;;17.79;52.54
58471;BME280;44258;51.288;12.068;2023-06-10T02:26:40;100448.31;;;17.82;52.31
58471;BME280;44258;51.288;12.068;2023-06-10T02:29:28;100454.19;;;17.66;52.88
58471;BME280;44258;51.288;12.068;2023-06-10T02:32:15;100459.94;;;17.51;53.03
58471;BME280;44258;51.288;12.068;2023-06-10T02:35:02;100449.72;;;17.32;53.60
58471;BME280;44258;51.288;12.068;2023-06-10T02:37:49;100457.03;;;17.21;53.91
58471;BME280;44258;51.288;12.068;2023-06-10T02:40:36;100454.19;;;16.77;55.37
58471;BME280;44258;51.288;12.068;2023-06-10T02:43:23;100457.53;;;16.81;55.39
58471;BME280;44258;51.288;12.068;2023-06-10T02:46:11;100450.72;;;16.98;55.64
58471;BME280;44258;51.288;12.068;2023-06-10T02:48:58;100460.00;;;16.72;56.15
58471;BME280;44258;51.288;12.068;2023-06-10T02:51:46;100467.00;;;16.75;56.05
58471;BME280;44258;51.288;12.068;2023-06-10T02:54:33;100471.94;;;16.47;57.35
58471;BME280;44258;51.288;12.068;2023-06-10T02:57:22;100471.34;;;16.66;57.13
58471;BME280;44258;51.288;12.068;2023-06-10T03:00:09;100473.69;;;16.60;57.32
58471;BME280;44258;51.288;12.068;2023-06-10T03:02:58;100476.22;;;16.39;58.21
58471;BME280;44258;51.288;12.068;2023-06-10T03:05:48;100474.78;;;16.46;58.15
58471;BME280;44258;51.288;12.068;2023-06-10T03:08:34;100470.31;;;16.45;59.00
58471;BME280;44258;51.288;12.068;2023-06-10T03:11:22;100475.16;;;16.64;57.67
58471;BME280;44258;51.288;12.068;2023-06-10T03:14:09;100470.00;;;16.72;57.57
58471;BME280;44258;51.288;12.068;2023-06-10T03:16:56;100475.56;;;16.82;57.24
58471;BME280;44258;51.288;12.068;2023-06-10T03:19:45;100463.69;;;16.94;57.35
58471;BME280;44258;51.288;12.068;2023-06-10T03:22:32;100465.50;;;16.48;58.20
58471;BME280;44258;51.288;12.068;2023-06-10T03:25:18;100469.81;;;16.51;58.84
58471;BME280;44258;51.288;12.068;2023-06-10T03:28:06;100473.03;;;16.33;59.33
58471;BME280;44258;51.288;12.068;2023-06-10T03:30:53;100473.03;;;16.45;59.19
58471;BME280;44258;51.288;12.068;2023-06-10T03:33:40;100476.16;;;16.51;58.92
58471;BME280;44258;51.288;12.068;2023-06-10T03:36:28;100482.09;;;16.68;58.64
58471;BME280;44258;51.288;12.068;2023-06-10T03:39:15;100479.59;;;16.53;58.90
58471;BME280;44258;51.288;12.068;2023-06-10T03:42:03;100482.16;;;16.44;59.33
58471;BME280;44258;51.288;12.068;2023-06-10T03:44:50;100494.00;;;16.43;58.94
58471;BME280;44258;51.288;12.068;2023-06-10T03:47:37;100495.38;;;16.13;60.39
58471;BME280;44258;51.288;12.068;2023-06-10T03:50:26;100505.47;;;16.35;59.84
58471;BME280;44258;51.288;12.068;2023-06-10T03:53:14;100514.84;;;16.31;60.14
58471;BME280;44258;51.288;12.068;2023-06-10T03:56:01;100512.97;;;16.07;61.26
58471;BME280;44258;51.288;12.068;2023-06-10T03:58:47;100518.19;;;16.46;60.07
58471;BME280;44258;51.288;12.068;2023-06-10T04:04:35;100514.69;;;16.32;60.46
58471;BME280;44258;51.288;12.068;2023-06-10T04:07:23;100520.44;;;16.28;60.95
58471;BME280;44258;51.288;12.068;2023-06-10T04:10:12;100528.31;;;16.44;60.76
58471;BME280;44258;51.288;12.068;2023-06-10T04:12:59;100531.19;;;16.53;60.71
58471;BME280;44258;51.288;12.068;2023-06-10T04:15:45;100531.22;;;16.29;61.75
58471;BME280;44258;51.288;12.068;2023-06-10T04:18:40;100524.59;;;15.85;63.52
58471;BME280;44258;51.288;12.068;2023-06-10T04:21:27;100534.50;;;15.49;65.02
58471;BME280;44258;51.288;12.068;2023-06-10T04:24:16;100529.09;;;15.24;66.25
58471;BME280;44258;51.288;12.068;2023-06-10T04:27:05;100537.69;;;15.18;66.35
58471;BME280;44258;51.288;12.068;2023-06-10T04:29:52;100535.94;;;15.17;66.74
58471;BME280;44258;51.288;12.068;2023-06-10T04:32:42;100541.25;;;15.44;65.93
58471;BME280;44258;51.288;12.068;2023-06-10T04:35:30;100534.94;;;15.30;66.84
58471;BME280;44258;51.288;12.068;2023-06-10T04:38:18;100551.44;;;15.02;67.94
58471;BME280;44258;51.288;12.068;2023-06-10T04:41:06;100547.88;;;15.01;68.04
58471;BME280;44258;51.288;12.068;2023-06-10T04:43:54;100545.25;;;15.25;67.51
58471;BME280;44258;51.288;12.068;2023-06-10T04:46:42;100549.25;;;15.32;66.77
58471;BME280;44258;51.288;12.068;2023-06-10T04:49:28;100544.63;;;14.83;68.96
58471;BME280;44258;51.288;12.068;2023-06-10T04:52:16;100541.47;;;15.15;67.64
58471;BME280;44258;51.288;12.068;2023-06-10T04:55:04;100563.03;;;14.65;69.67
58471;BME280;44258;51.288;12.068;2023-06-10T04:57:51;100549.19;;;14.70;69.86
58471;BME280;44258;51.288;12.068;2023-06-10T05:00:39;100542.66;;;14.47;70.70
58471;BME280;44258;51.288;12.068;2023-06-10T05:03:26;100542.78;;;14.84;69.71
58471;BME280;44258;51.288;12.068;2023-06-10T05:06:13;100543.22;;;15.03;69.22
58471;BME280;44258;51.288;12.068;2023-06-10T05:09:20;100539.09;;;14.46;71.13
58471;BME280;44258;51.288;12.068;2023-06-10T05:12:08;100546.00;;;15.27;68.45
58471;BME280;44258;51.288;12.068;2023-06-10T05:14:55;100548.41;;;15.06;69.04
58471;BME280;44258;51.288;12.068;2023-06-10T05:17:52;100549.28;;;15.07;68.91
58471;BME280;44258;51.288;12.068;2023-06-10T05:20:39;100549.66;;;15.52;67.98
58471;BME280;44258;51.288;12.068;2023-06-10T05:23:26;100562.06;;;14.92;70.15
58471;BME280;44258;51.288;12.068;2023-06-10T05:26:13;100563.53;;;15.60;67.53
58471;BME280;44258;51.288;12.068;2023-06-10T05:29:00;100553.66;;;15.83;66.89
58471;BME280;44258;51.288;12.068;2023-06-10T05:31:47;100557.09;;;15.61;66.88
58471;BME280;44258;51.288;12.068;2023-06-10T05:34:37;100552.47;;;15.50;68.00
58471;BME280;44258;51.288;12.068;2023-06-10T05:37:26;100552.25;;;16.14;65.61
58471;BME280;44258;51.288;12.068;2023-06-10T05:40:16;100556.41;;;15.21;68.67
58471;BME280;44258;51.288;12.068;2023-06-10T05:43:03;100552.84;;;15.20;68.99
58471;BME280;44258;51.288;12.068;2023-06-10T05:45:52;100561.66;;;15.61;67.61
58471;BME280;44258;51.288;12.068;2023-06-10T05:48:45;100564.47;;;15.35;68.66
58471;BME280;44258;51.288;12.068;2023-06-10T05:51:34;100560.34;;;15.66;67.12
58471;BME280;44258;51.288;12.068;2023-06-10T05:54:22;100551.50;;;15.88;67.27
58471;BME280;44258;51.288;12.068;2023-06-10T05:57:11;100557.16;;;15.48;68.14
58471;BME280;44258;51.288;12.068;2023-06-10T05:59:58;100567.59;;;16.27;65.63
58471;BME280;44258;51.288;12.068;2023-06-10T06:02:45;100555.72;;;16.28;65.23
58471;BME280;44258;51.288;12.068;2023-06-10T06:05:32;100559.28;;;16.17;65.87
58471;BME280;44258;51.288;12.068;2023-06-10T06:08:21;100564.41;;;16.68;64.25
58471;BME280;44258;51.288;12.068;2023-06-10T06:11:10;100563.59;;;16.90;63.44
58471;BME280;44258;51.288;12.068;2023-06-10T06:14:02;100564.47;;;17.36;61.91
58471;BME280;44258;51.288;12.068;2023-06-10T06:16:49;100563.09;;;17.19;62.99
58471;BME280;44258;51.288;12.068;2023-06-10T06:19:36;100568.06;;;18.03;60.39
58471;BME280;44258;51.288;12.068;2023-06-10T06:22:23;100569.31;;;17.99;60.37
58471;BME280;44258;51.288;12.068;2023-06-10T06:25:11;100578.44;;;17.20;61.61
58471;BME280;44258;51.288;12.068;2023-06-10T06:27:58;100577.09;;;17.26;61.76
58471;BME280;44258;51.288;12.068;2023-06-10T06:30:45;100573.97;;;17.19;62.99
58471;BME280;44258;51.288;12.068;2023-06-10T06:33:32;100579.34;;;17.98;60.77
58471;BME280;44258;51.288;12.068;2023-06-10T06:36:18;100585.47;;;17.34;61.68
58471;BME280;44258;51.288;12.068;2023-06-10T06:39:05;100581.00;;;17.67;61.28
58471;BME280;44258;51.288;12.068;2023-06-10T06:41:54;100585.25;;;18.47;58.54
58471;BME280;44258;51.288;12.068;2023-06-10T06:44:41;100571.63;;;18.89;57.51
58471;BME280;44258;51.288;12.068;2023-06-10T06:47:28;100585.41;;;18.87;57.73
58471;BME280;44258;51.288;12.068;2023-06-10T06:50:15;100586.19;;;18.78;58.04
58471;BME280;44258;51.288;12.068;2023-06-10T06:53:02;100591.19;;;18.73;57.77
58471;BME280;44258;51.288;12.068;2023-06-10T06:55:49;100585.66;;;18.84;57.96
58471;BME280;44258;51.288;12.068;2023-06-10T06:58:37;100589.13;;;19.07;56.53
58471;BME280;44258;51.288;12.068;2023-06-10T07:01:24;100577.41;;;18.74;57.51
58471;BME280;44258;51.288;12.068;2023-06-10T07:04:11;100578.78;;;19.32;57.02
58471;BME280;44258;51.288;12.068;2023-06-10T07:06:58;100592.19;;;19.45;56.09
58471;BME280;44258;51.288;12.068;2023-06-10T07:09:45;100584.16;;;19.53;55.33
58471;BME280;44258;51.288;12.068;2023-06-10T07:12:32;100585.50;;;19.59;55.93
58471;BME280;44258;51.288;12.068;2023-06-10T07:15:23;100587.47;;;20.07;54.36
58471;BME280;44258;51.288;12.068;2023-06-10T07:18:11;100595.31;;;19.40;55.44
58471;BME280;44258;51.288;12.068;2023-06-10T07:20:58;100589.75;;;19.51;56.17
58471;BME280;44258;51.288;12.068;2023-06-10T07:23:50;100590.09;;;20.38;54.01
58471;BME280;44258;51.288;12.068;2023-06-10T07:26:39;100592.41;;;19.72;55.12
58471;BME280;44258;51.288;12.068;2023-06-10T07:29:33;100597.56;;;19.04;57.73
58471;BME280;44258;51.288;12.068;2023-06-10T07:32:22;100594.94;;;19.85;55.67
58471;BME280;44258;51.288;12.068;2023-06-10T07:35:10;100599.13;;;19.99;55.56
58471;BME280;44258;51.288;12.068;2023-06-10T07:37:57;100600.94;;;19.79;55.79
58471;BME280;44258;51.288;12.068;2023-06-10T07:40:44;100605.28;;;20.11;54.59
58471;BME280;44258;51.288;12.068;2023-06-10T07:43:31;100597.06;;;21.08;52.37
58471;BME280;44258;51.288;12.068;2023-06-10T07:46:18;100600.41;;;21.02;52.13
58471;BME280;44258;51.288;12.068;2023-06-10T07:49:14;100604.88;;;21.50;51.53
58471;BME280;44258;51.288;12.068;2023-06-10T07:52:01;100605.78;;;21.41;51.07
58471;BME280;44258;51.288;12.068;2023-06-10T07:54:48;100605.34;;;21.73;50.69
58471;BME280;44258;51.288;12.068;2023-06-10T07:57:35;100602.47;;;21.75;50.25
58471;BME280;44258;51.288;12.068;2023-06-10T08:00:23;100608.91;;;21.56;50.58
58471;BME280;44258;51.288;12.068;2023-06-10T08:03:11;100598.91;;;21.92;50.78
58471;BME280;44258;51.288;12.068;2023-06-10T08:05:59;100601.75;;;21.73;51.16
58471;BME280;44258;51.288;12.068;2023-06-10T08:08:47;100604.69;;;21.14;51.57
58471;BME280;44258;51.288;12.068;2023-06-10T08:11:34;100594.78;;;21.04;52.49
58471;BME280;44258;51.288;12.068;2023-06-10T08:14:21;100604.78;;;21.42;51.11
58471;BME280;44258;51.288;12.068;2023-06-10T08:17:08;100600.97;;;21.06;52.73
58471;BME280;44258;51.288;12.068;2023-06-10T08:19:55;100608.91;;;22.29;49.79
58471;BME280;44258;51.288;12.068;2023-06-10T08:22:44;100606.31;;;21.82;50.83
58471;BME280;44258;51.288;12.068;2023-06-10T08:25:31;100602.94;;;22.88;48.28
58471;BME280;44258;51.288;12.068;2023-06-10T08:28:22;100608.72;;;21.58;51.29
58471;BME280;44258;51.288;12.068;2023-06-10T08:31:09;100604.91;;;22.24;49.46
58471;BME280;44258;51.288;12.068;2023-06-10T08:33:55;100609.50;;;21.50;51.59
58471;BME280;44258;51.288;12.068;2023-06-10T08:36:43;100608.34;;;21.52;51.51
58471;BME280;44258;51.288;12.068;2023-06-10T08:39:32;100600.84;;;22.46;49.91
58471;BME280;44258;51.288;12.068;2023-06-10T08:42:22;100599.81;;;22.65;49.39
58471;BME280;44258;51.288;12.068;2023-06-10T08:45:18;100596.63;;;23.40;47.07
58471;BME280;44258;51.288;12.068;2023-06-10T08:48:07;100600.31;;;22.78;47.64
58471;BME280;44258;51.288;12.068;2023-06-10T08:50:55;100597.19;;;22.99;47.76
58471;BME280;44258;51.288;12.068;2023-06-10T08:53:47;100582.56;;;23.43;46.64
58471;BME280;44258;51.288;12.068;2023-06-10T08:56:42;100593.72;;;23.41;47.06
58471;BME280;44258;51.288;12.068;2023-06-10T08:59:34;100576.63;;;23.29;46.98
58471;BME280;44258;51.288;12.068;2023-06-10T09:02:21;100582.88;;;23.74;47.42
58471;BME280;44258;51.288;12.068;2023-06-10T09:05:09;100574.88;;;23.97;45.67
58471;BME280;44258;51.288;12.068;2023-06-10T09:07:57;100589.53;;;24.22;45.51
58471;BME280;44258;51.288;12.068;2023-06-10T09:10:44;100587.06;;;23.00;48.08
58471;BME280;44258;51.288;12.068;2023-06-10T09:13:33;100587.00;;;22.29;49.82
58471;BME280;44258;51.288;12.068;2023-06-10T09:16:20;100595.47;;;22.72;48.77
58471;BME280;44258;51.288;12.068;2023-06-10T09:19:07;100585.50;;;22.71;49.10
58471;BME280;44258;51.288;12.068;2023-06-10T09:21:55;100581.00;;;22.88;48.49
58471;BME280;44258;51.288;12.068;2023-06-10T09:24:41;100585.19;;;23.52;47.37
58471;BME280;44258;51.288;12.068;2023-06-10T09:27:30;100577.03;;;23.77;45.93
58471;BME280;44258;51.288;12.068;2023-06-10T09:30:26;100585.31;;;23.93;46.23
58471;BME280;44258;51.288;12.068;2023-06-10T09:33:14;100579.13;;;23.91;46.12
58471;BME280;44258;51.288;12.068;2023-06-10T09:36:02;100573.63;;;23.41;48.25
58471;BME280;44258;51.288;12.068;2023-06-10T09:38:50;100573.56;;;24.26;45.49
58471;BME280;44258;51.288;12.068;2023-06-10T09:41:40;100582.69;;;24.35;45.16
58471;BME280;44258;51.288;12.068;2023-06-10T09:44:27;100581.50;;;24.45;45.09
58471;BME280;44258;51.288;12.068;2023-06-10T09:47:19;100585.00;;;23.97;45.39
58471;BME280;44258;51.288;12.068;2023-06-10T09:50:07;100580.00;;;23.84;47.22
58471;BME280;44258;51.288;12.068;2023-06-10T09:52:55;100588.25;;;23.92;47.05
58471;BME280;44258;51.288;12.068;2023-06-10T09:55:44;100581.97;;;24.24;45.39
58471;BME280;44258;51.288;12.068;2023-06-10T09:58:35;100579.94;;;25.08;44.01
58471;BME280;44258;51.288;12.068;2023-06-10T10:01:23;100570.84;;;24.91;45.25
58471;BME280;44258;51.288;12.068;2023-06-10T10:04:12;100580.97;;;24.17;46.13
58471;BME280;44258;51.288;12.068;2023-06-10T10:07:02;100571.19;;;24.47;46.66
58471;BME280;44258;51.288;12.068;2023-06-10T10:09:50;100569.66;;;24.69;44.16
58471;BME280;44258;51.288;12.068;2023-06-10T10:12:38;100567.16;;;25.24;43.67
58471;BME280;44258;51.288;12.068;2023-06-10T10:15:29;100561.81;;;23.99;45.71
58471;BME280;44258;51.288;12.068;2023-06-10T10:18:19;100567.22;;;24.17;46.21
58471;BME280;44258;51.288;12.068;2023-06-10T10:21:20;100558.66;;;24.61;45.71
58471;BME280;44258;51.288;12.068;2023-06-10T10:24:12;100562.00;;;25.37;43.93
58471;BME280;44258;51.288;12.068;2023-06-10T10:27:01;100558.97;;;25.63;43.41
58471;BME280;44258;51.288;12.068;2023-06-10T10:29:54;100561.56;;;25.57;43.65
58471;BME280;44258;51.288;12.068;2023-06-10T10:32:46;100556.19;;;26.03;42.56
58471;BME280;44258;51.288;12.068;2023-06-10T10:35:37;100555.69;;;26.68;40.30
58471;BME280;44258;51.288;12.068;2023-06-10T10:38:27;100549.16;;;26.69;39.57
58471;BME280;44258;51.288;12.068;2023-06-10T10:41:15;100552.78;;;26.85;40.33
58471;BME280;44258;51.288;12.068;2023-06-10T10:44:02;100542.13;;;26.21;41.02
58471;BME280;44258;51.288;12.068;2023-06-10T10:46:51;100536.22;;;26.24;41.18
58471;BME280;44258;51.288;12.068;2023-06-10T10:49:43;100538.06;;;25.29;42.73
58471;BME280;44258;51.288;12.068;2023-06-10T10:52:48;100531.31;;;24.84;43.83
58471;BME280;44258;51.288;12.068;2023-06-10T10:55:39;100524.84;;;25.25;44.20
58471;BME280;44258;51.288;12.068;2023-06-10T10:58:26;100533.38;;;25.46;43.52
58471;BME280;44258;51.288;12.068;2023-06-10T11:01:13;100523.84;;;26.66;40.48
58471;BME280;44258;51.288;12.068;2023-06-10T11:04:06;100513.91;;;27.09;39.56
58471;BME280;44258;51.288;12.068;2023-06-10T11:06:54;100516.28;;;27.27;39.47
58471;BME280;44258;51.288;12.068;2023-06-10T11:10:00;100525.69;;;27.03;39.98
58471;BME280;44258;51.288;12.068;2023-06-10T11:12:52;100511.41;;;26.85;40.25
58471;BME280;44258;51.288;12.068;2023-06-10T11:15:43;100494.84;;;27.15;39.34
58471;BME280;44258;51.288;12.068;2023-06-10T11:18:38;100498.66;;;27.43;38.51
58471;BME280;44258;51.288;12.068;2023-06-10T11:21:27;100498.59;;;27.37;38.40
58471;BME280;44258;51.288;12.068;2023-06-10T11:24:13;100502.75;;;26.88;37.92
58471;BME280;44258;51.288;12.068;2023-06-10T11:27:18;100501.72;;;27.48;37.29
58471;BME280;44258;51.288;12.068;2023-06-10T11:30:25;100500.06;;;27.54;37.24
58471;BME280;44258;51.288;12.068;2023-06-10T11:33:14;100495.63;;;27.38;36.63
58471;BME280;44258;51.288;12.068;2023-06-10T11:36:06;100492.88;;;27.89;36.48
58471;BME280;44258;51.288;12.068;2023-06-10T11:38:56;100491.22;;;27.44;37.00
58471;BME280;44258;51.288;12.068;2023-06-10T11:41:43;100490.22;;;28.03;36.27
58471;BME280;44258;51.288;12.068;2023-06-10T11:44:32;100478.38;;;28.09;36.15
58471;BME280;44258;51.288;12.068;2023-06-10T11:47:24;100480.13;;;27.74;35.56
58471;BME280;44258;51.288;12.068;2023-06-10T11:50:12;100484.44;;;27.61;36.08
58471;BME280;44258;51.288;12.068;2023-06-10T11:52:59;100471.59;;;27.54;36.98
58471;BME280;44258;51.288;12.068;2023-06-10T11:55:47;100473.22;;;28.27;35.45
58471;BME280;44258;51.288;12.068;2023-06-10T11:58:34;100470.53;;;28.13;34.37
58471;BME280;44258;51.288;12.068;2023-06-10T12:01:22;100472.28;;;27.77;35.07
58471;BME280;44258;51.288;12.068;2023-06-10T12:04:12;100454.66;;;28.21;34.48
58471;BME280;44258;51.288;12.068;2023-06-10T12:06:59;100466.91;;;28.34;34.60
58471;BME280;44258;51.288;12.068;2023-06-10T12:09:46;100455.53;;;27.27;35.92
58471;BME280;44258;51.288;12.068;2023-06-10T12:12:34;100457.13;;;28.09;34.37
58471;BME280;44258;51.288;12.068;2023-06-10T12:15:23;100442.84;;;28.56;34.32
58471;BME280;44258;51.288;12.068;2023-06-10T12:18:15;100449.25;;;28.91;33.78
58471;BME280;44258;51.288;12.068;2023-06-10T12:21:15;100443.25;;;29.16;34.11
58471;BME280;44258;51.288;12.068;2023-06-10T12:24:04;100442.81;;;28.84;33.25
58471;BME280;44258;51.288;12.068;2023-06-10T12:26:53;100440.28;;;29.17;32.37
58471;BME280;44258;51.288;12.068;2023-06-10T12:29:50;100437.06;;;29.14;32.29
58471;BME280;44258;51.288;12.068;2023-06-10T12:32:41;100431.72;;;28.77;33.14
58471;BME280;44258;51.288;12.068;2023-06-10T12:35:28;100432.00;;;27.83;34.92
58471;BME280;44258;51.288;12.068;2023-06-10T12:38:20;100427.50;;;27.24;35.66
58471;BME280;44258;51.288;12.068;2023-06-10T12:41:08;100426.13;;;27.93;35.29
58471;BME280;44258;51.288;12.068;2023-06-10T12:43:54;100420.19;;;27.53;36.15
58471;BME280;44258;51.288;12.068;2023-06-10T12:46:41;100413.28;;;26.97;36.44
58471;BME280;44258;51.288;12.068;2023-06-10T12:49:28;100417.66;;;26.47;36.12
58471;BME280;44258;51.288;12.068;2023-06-10T12:52:16;100438.91;;;26.61;37.07
58471;BME280;44258;51.288;12.068;2023-06-10T12:55:05;100420.25;;;26.63;36.43
58471;BME280;44258;51.288;12.068;2023-06-10T12:57:52;100415.88;;;27.14;35.45
58471;BME280;44258;51.288;12.068;2023-06-10T13:00:41;100412.72;;;26.87;35.70
58471;BME280;44258;51.288;12.068;2023-06-10T13:03:28;100417.97;;;26.97;34.41
58471;BME280;44258;51.288;12.068;2023-06-10T13:06:22;100417.97;;;28.06;33.91
58471;BME280;44258;51.288;12.068;2023-06-10T13:09:09;100411.59;;;28.62;32.10
58471;BME280;44258;51.288;12.068;2023-06-10T13:11:57;100420.19;;;28.39;31.62
58471;BME280;44258;51.288;12.068;2023-06-10T13:14:47;100439.28;;;27.90;32.16
58471;BME280;44258;51.288;12.068;2023-06-10T13:17:34;100425.94;;;27.36;33.17
58471;BME280;44258;51.288;12.068;2023-06-10T13:20:21;100433.28;;;26.99;33.91
58471;BME280;44258;51.288;12.068;2023-06-10T13:23:08;100443.44;;;26.16;35.74
58471;BME280;44258;51.288;12.068;2023-06-10T13:25:55;100439.59;;;25.79;35.44
58471;BME280;44258;51.288;12.068;2023-06-10T13:28:44;100446.06;;;25.24;35.77
58471;BME280;44258;51.288;12.068;2023-06-10T13:31:31;100443.59;;;24.98;36.02
58471;BME280;44258;51.288;12.068;2023-06-10T13:34:18;100435.25;;;24.66;37.53
58471;BME280;44258;51.288;12.068;2023-06-10T13:37:05;100439.91;;;24.58;37.52
58471;BME280;44258;51.288;12.068;2023-06-10T13:39:52;100441.28;;;24.62;37.34
58471;BME280;44258;51.288;12.068;2023-06-10T13:42:39;100427.84;;;25.23;37.11
58471;BME280;44258;51.288;12.068;2023-06-10T13:45:28;100422.97;;;25.33;37.66
58471;BME280;44258;51.288;12.068;2023-06-10T13:48:16;100432.66;;;25.21;38.69
58471;BME280;44258;51.288;12.068;2023-06-10T13:51:03;100424.81;;;25.49;37.40
58471;BME280;44258;51.288;12.068;2023-06-10T13:53:52;100431.22;;;26.34;36.09
58471;BME280;44258;51.288;12.068;2023-06-10T13:56:41;100429.47;;;26.18;34.54
58471;BME280;44258;51.288;12.068;2023-06-10T13:59:28;100428.16;;;26.81;33.25
58471;BME280;44258;51.288;12.068;2023-06-10T14:02:19;100420.63;;;27.05;32.91
58471;BME280;44258;51.288;12.068;2023-06-10T14:05:07;100433.94;;;27.01;31.53
58471;BME280;44258;51.288;12.068;2023-06-10T14:07:58;100444.59;;;26.75;31.74
58471;BME280;44258;51.288;12.068;2023-06-10T14:10:47;100442.97;;;26.50;31.82
58471;BME280;44258;51.288;12.068;2023-06-10T14:13:36;100442.63;;;26.30;31.83
58471;BME280;44258;51.288;12.068;2023-06-10T14:16:26;100442.25;;;26.34;31.64
58471;BME280;44258;51.288;12.068;2023-06-10T14:19:14;100434.63;;;26.74;31.88
58471;BME280;44258;51.288;12.068;2023-06-10T14:22:01;100432.72;;;27.04;30.63
58471;BME280;44258;51.288;12.068;2023-06-10T14:24:48;100438.50;;;27.39;30.41
58471;BME280;44258;51.288;12.068;2023-06-10T14:27:35;100437.34;;;27.33;29.54
58471;BME280;44258;51.288;12.068;2023-06-10T14:30:22;100424.28;;;27.42;28.68
58471;BME280;44258;51.288;12.068;2023-06-10T14:33:08;100422.69;;;27.69;27.77